createdAt,value
2023-11-26T00:00:49.029Z,21.64
2023-11-26T00:03:16.688Z,21.65
2023-11-26T00:05:44.061Z,21.65
2023-11-26T00:08:11.611Z,21.65
2023-11-26T00:10:39.078Z,21.64
2023-11-26T00:13:06.492Z,21.64
2023-11-26T00:15:33.865Z,21.62
2023-11-26T00:18:03.194Z,21.62
2023-11-26T00:20:30.912Z,21.61
2023-11-26T00:22:58.402Z,21.62
2023-11-26T00:25:25.858Z,21.62
2023-11-26T00:27:53.294Z,21.60
2023-11-26T00:30:20.728Z,21.59
2023-11-26T00:32:48.346Z,21.59
2023-11-26T00:35:17.297Z,21.58
2023-11-26T00:37:45.563Z,21.57
2023-11-26T00:40:13.670Z,21.59
2023-11-26T00:42:41.521Z,21.58
2023-11-26T00:45:09.049Z,21.57
2023-11-26T00:47:36.544Z,21.56
2023-11-26T00:50:05.343Z,21.56
2023-11-26T00:52:34.281Z,21.54
2023-11-26T00:55:01.930Z,21.54
2023-11-26T00:57:29.395Z,21.54
2023-11-26T00:59:56.893Z,21.53
2023-11-26T01:02:25.872Z,21.54
2023-11-26T01:04:54.365Z,21.54
2023-11-26T01:07:23.386Z,21.54
2023-11-26T01:09:52.144Z,21.53
2023-11-26T01:12:19.646Z,21.53
2023-11-26T01:14:47.031Z,21.53
2023-11-26T01:17:14.560Z,21.54
2023-11-26T01:19:43.119Z,21.54
2023-11-26T01:22:10.562Z,21.54
2023-11-26T01:24:38.198Z,21.53
2023-11-26T01:27:07.030Z,21.52
2023-11-26T01:29:34.617Z,21.52
2023-11-26T01:32:02.285Z,21.53
2023-11-26T01:34:29.682Z,21.51
2023-11-26T01:36:57.302Z,21.53
2023-11-26T01:39:24.771Z,21.52
2023-11-26T01:41:52.241Z,21.52
2023-11-26T01:44:21.142Z,21.52
2023-11-26T01:46:48.824Z,21.52
2023-11-26T01:49:16.302Z,21.52
2023-11-26T01:51:44.023Z,21.51
2023-11-26T01:54:12.116Z,21.50
2023-11-26T01:56:39.888Z,21.51
2023-11-26T01:59:07.165Z,21.49
2023-11-26T02:01:36.330Z,21.49
2023-11-26T02:04:05.572Z,21.49
2023-11-26T02:06:34.426Z,21.48
2023-11-26T02:09:02.648Z,21.49
2023-11-26T02:11:30.164Z,21.49
2023-11-26T02:13:58.161Z,21.48
2023-11-26T02:16:25.742Z,21.48
2023-11-26T02:18:54.823Z,21.48
2023-11-26T02:21:22.821Z,21.47
2023-11-26T02:23:50.497Z,21.47
2023-11-26T02:26:19.406Z,21.47
2023-11-26T02:28:46.906Z,21.47
2023-11-26T02:31:14.436Z,21.47
2023-11-26T02:33:54.479Z,21.46
2023-11-26T02:36:27.361Z,21.46
2023-11-26T02:38:55.647Z,21.47
2023-11-26T02:41:25.633Z,21.46
2023-11-26T02:43:53.842Z,21.45
2023-11-26T02:46:21.332Z,21.45
2023-11-26T02:48:48.809Z,21.46
2023-11-26T02:51:16.288Z,21.44
2023-11-26T02:53:45.111Z,21.44
2023-11-26T02:56:13.340Z,21.45
2023-11-26T02:58:42.732Z,21.44
2023-11-26T03:01:17.262Z,21.44
2023-11-26T03:03:46.396Z,21.45
2023-11-26T03:06:17.022Z,21.45
2023-11-26T03:08:44.781Z,21.44
2023-11-26T03:11:30.704Z,21.44
2023-11-26T03:13:59.650Z,21.43
2023-11-26T03:16:27.662Z,21.43
2023-11-26T03:18:55.191Z,21.42
2023-11-26T03:21:28.022Z,21.42
2023-11-26T03:23:55.542Z,21.42
2023-11-26T03:26:27.815Z,21.43
2023-11-26T03:28:56.036Z,21.41
2023-11-26T03:31:25.137Z,21.41
2023-11-26T03:33:53.506Z,21.41
2023-11-26T03:36:22.358Z,21.40
2023-11-26T03:38:50.728Z,21.41
2023-11-26T03:41:18.503Z,21.40
2023-11-26T03:43:46.065Z,21.40
2023-11-26T03:46:13.477Z,21.39
2023-11-26T03:48:46.483Z,21.37
2023-11-26T03:51:17.744Z,21.37
2023-11-26T03:53:45.202Z,21.38
2023-11-26T03:56:12.717Z,21.37
2023-11-26T03:58:40.130Z,21.38
2023-11-26T04:01:11.208Z,21.38
2023-11-26T04:03:38.603Z,21.38
2023-11-26T04:06:08.663Z,21.38
2023-11-26T04:08:36.118Z,21.39
2023-11-26T04:11:05.603Z,21.37
2023-11-26T04:13:33.514Z,21.37
2023-11-26T04:16:01.119Z,21.38
2023-11-26T04:18:29.490Z,21.38
2023-11-26T04:20:56.875Z,21.38
2023-11-26T04:23:25.682Z,21.37
2023-11-26T04:25:53.861Z,21.38
2023-11-26T04:28:21.845Z,21.38
2023-11-26T04:30:49.402Z,21.37
2023-11-26T04:33:19.459Z,21.37
2023-11-26T04:35:47.463Z,21.38
2023-11-26T04:38:15.089Z,21.34
2023-11-26T04:40:43.906Z,21.37
2023-11-26T04:43:11.355Z,21.38
2023-11-26T04:45:38.773Z,21.38
2023-11-26T04:48:06.248Z,21.37
2023-11-26T04:50:33.774Z,21.37
2023-11-26T04:53:01.234Z,21.36
2023-11-26T04:55:29.153Z,21.37
2023-11-26T04:57:57.793Z,21.35
2023-11-26T05:00:25.255Z,21.36
2023-11-26T05:02:54.429Z,21.35
2023-11-26T05:05:22.582Z,21.36
2023-11-26T05:07:50.969Z,21.33
2023-11-26T05:10:18.359Z,21.34
2023-11-26T05:12:45.811Z,21.34
2023-11-26T05:15:14.494Z,21.33
2023-11-26T05:17:42.010Z,21.32
2023-11-26T05:20:15.176Z,21.32
2023-11-26T05:22:42.972Z,21.34
2023-11-26T05:25:10.875Z,21.34
2023-11-26T05:27:38.467Z,21.33
2023-11-26T05:30:07.931Z,21.33
2023-11-26T05:32:36.896Z,21.32
2023-11-26T05:35:13.623Z,21.64
2023-11-26T05:37:41.480Z,22.12
2023-11-26T05:40:10.589Z,22.35
2023-11-26T05:42:38.050Z,22.50
2023-11-26T05:45:06.077Z,22.63
2023-11-26T05:47:33.577Z,22.68
2023-11-26T05:50:02.439Z,22.76
2023-11-26T05:52:31.692Z,22.74
2023-11-26T05:54:59.138Z,22.69
2023-11-26T05:57:26.733Z,22.60
2023-11-26T05:59:54.545Z,22.55
2023-11-26T06:02:21.999Z,22.77
2023-11-26T06:04:49.880Z,23.05
2023-11-26T06:07:18.653Z,23.14
2023-11-26T06:09:46.083Z,23.19
2023-11-26T06:12:13.577Z,23.24
2023-11-26T06:14:41.051Z,23.27
2023-11-26T06:17:08.623Z,23.26
2023-11-26T06:19:38.320Z,23.24
2023-11-26T06:22:05.805Z,23.27
2023-11-26T06:24:34.965Z,23.24
2023-11-26T06:27:02.455Z,23.21
2023-11-26T06:29:29.998Z,23.19
2023-11-26T06:31:57.510Z,23.04
2023-11-26T06:34:27.446Z,22.95
2023-11-26T06:36:55.028Z,22.93
2023-11-26T06:39:24.656Z,23.12
2023-11-26T06:41:53.571Z,23.37
2023-11-26T06:44:21.847Z,23.41
2023-11-26T06:46:52.498Z,23.47
2023-11-26T06:49:19.925Z,23.43
2023-11-26T06:51:47.426Z,23.45
2023-11-26T06:54:14.864Z,23.43
2023-11-26T06:56:42.334Z,23.42
2023-11-26T06:59:11.207Z,23.42
2023-11-26T07:01:39.775Z,23.43
2023-11-26T07:04:07.339Z,23.41
2023-11-26T07:06:34.734Z,23.38
2023-11-26T07:09:02.318Z,23.33
2023-11-26T07:11:29.934Z,23.17
2023-11-26T07:13:59.727Z,23.05
2023-11-26T07:16:28.986Z,23.03
2023-11-26T07:18:56.374Z,23.23
2023-11-26T07:21:23.821Z,23.42
2023-11-26T07:23:51.812Z,23.51
2023-11-26T07:26:22.404Z,23.54
2023-11-26T07:28:53.474Z,23.52
2023-11-26T07:31:24.075Z,23.55
2023-11-26T07:33:53.239Z,23.57
2023-11-26T07:36:25.377Z,23.53
2023-11-26T07:38:54.123Z,23.55
2023-11-26T07:41:22.096Z,23.43
2023-11-26T07:43:53.397Z,23.27
2023-11-26T07:46:22.368Z,23.19
2023-11-26T07:48:50.701Z,23.15
2023-11-26T07:51:19.635Z,23.05
2023-11-26T07:53:47.853Z,22.97
2023-11-26T07:56:16.106Z,23.13
2023-11-26T07:58:43.664Z,23.50
2023-11-26T08:01:12.564Z,23.70
2023-11-26T08:03:40.249Z,23.79
2023-11-26T08:06:14.199Z,23.82
2023-11-26T08:08:44.843Z,23.82
2023-11-26T08:11:14.207Z,23.83
2023-11-26T08:13:42.810Z,23.75
2023-11-26T08:16:11.399Z,23.77
2023-11-26T08:18:41.100Z,23.77
2023-11-26T08:21:09.092Z,23.81
2023-11-26T08:23:42.447Z,23.74
2023-11-26T08:26:14.466Z,23.78
2023-11-26T08:28:43.317Z,23.69
2023-11-26T08:31:12.160Z,23.62
2023-11-26T08:33:48.599Z,23.44
2023-11-26T08:36:19.457Z,23.40
2023-11-26T08:38:48.521Z,23.78
2023-11-26T08:41:22.654Z,24.01
2023-11-26T08:43:52.171Z,23.94
2023-11-26T08:46:22.175Z,23.94
2023-11-26T08:48:53.537Z,23.87
2023-11-26T08:51:21.155Z,23.84
2023-11-26T08:53:48.636Z,23.78
2023-11-26T08:56:19.415Z,23.67
2023-11-26T08:58:47.230Z,23.54
2023-11-26T09:01:14.799Z,23.43
2023-11-26T09:03:42.208Z,23.29
2023-11-26T09:06:09.706Z,23.15
2023-11-26T09:08:37.081Z,23.06
2023-11-26T09:11:04.617Z,22.95
2023-11-26T09:13:33.538Z,22.86
2023-11-26T09:16:01.776Z,22.78
2023-11-26T09:18:29.226Z,22.70
2023-11-26T09:20:56.594Z,22.64
2023-11-26T09:23:24.533Z,22.57
2023-11-26T09:25:51.978Z,22.53
2023-11-26T09:28:19.529Z,22.48
2023-11-26T09:30:48.459Z,22.39
2023-11-26T09:33:15.976Z,22.35
2023-11-26T09:35:43.726Z,22.30
2023-11-26T09:38:10.888Z,22.23
2023-11-26T09:40:41.416Z,22.20
2023-11-26T09:43:09.093Z,22.17
2023-11-26T09:45:38.873Z,22.13
2023-11-26T09:48:10.527Z,22.11
2023-11-26T09:50:38.134Z,22.08
2023-11-26T09:53:08.006Z,22.05
2023-11-26T09:55:39.756Z,21.99
2023-11-26T09:58:07.508Z,22.01
2023-11-26T10:00:34.985Z,21.99
2023-11-26T10:03:04.175Z,21.96
2023-11-26T10:05:34.002Z,21.92
2023-11-26T10:08:03.702Z,21.92
2023-11-26T10:10:31.419Z,21.90
2023-11-26T10:13:00.969Z,21.88
2023-11-26T10:15:30.903Z,21.85
2023-11-26T10:18:00.916Z,21.86
2023-11-26T10:20:28.816Z,21.83
2023-11-26T10:22:58.172Z,21.81
2023-11-26T10:25:25.803Z,21.79
2023-11-26T10:27:53.240Z,21.77
2023-11-26T10:30:25.637Z,21.77
2023-11-26T10:32:59.455Z,21.72
2023-11-26T10:35:27.337Z,21.74
2023-11-26T10:38:10.204Z,21.72
2023-11-26T10:40:38.018Z,21.71
2023-11-26T10:43:08.666Z,21.71
2023-11-26T10:45:36.975Z,21.68
2023-11-26T10:48:09.318Z,21.68
2023-11-26T10:50:43.216Z,21.64
2023-11-26T10:53:22.406Z,21.65
2023-11-26T10:55:52.802Z,21.64
2023-11-26T10:58:20.888Z,21.63
2023-11-26T11:00:51.320Z,21.63
2023-11-26T11:03:19.294Z,21.63
2023-11-26T11:05:50.168Z,21.61
2023-11-26T11:08:20.343Z,21.60
2023-11-26T11:10:59.999Z,21.60
2023-11-26T11:13:30.072Z,21.58
2023-11-26T11:15:57.976Z,21.57
2023-11-26T11:18:43.131Z,21.57
2023-11-26T11:21:13.246Z,21.55
2023-11-26T11:23:51.007Z,21.53
2023-11-26T11:26:23.426Z,21.65
2023-11-26T11:28:52.820Z,21.68
2023-11-26T11:31:21.445Z,21.71
2023-11-26T11:34:20.113Z,21.72
2023-11-26T11:36:55.911Z,21.76
2023-11-26T11:39:26.720Z,22.03
2023-11-26T11:42:09.751Z,22.52
2023-11-26T11:44:38.617Z,22.75
2023-11-26T11:47:07.209Z,22.87
2023-11-26T11:50:06.892Z,23.00
2023-11-26T11:52:35.076Z,22.99
2023-11-26T11:55:32.912Z,23.02
2023-11-26T11:58:11.708Z,22.96
2023-11-26T12:00:39.411Z,22.89
2023-11-26T12:03:07.101Z,22.83
2023-11-26T12:05:36.416Z,22.99
2023-11-26T12:08:05.336Z,23.35
2023-11-26T12:10:34.316Z,23.45
2023-11-26T12:13:03.210Z,23.42
2023-11-26T12:15:31.723Z,23.45
2023-11-26T12:18:00.726Z,23.49
2023-11-26T12:20:28.836Z,23.49
2023-11-26T12:22:57.175Z,23.48
2023-11-26T12:25:24.958Z,23.57
2023-11-26T12:28:09.276Z,23.55
2023-11-26T12:30:38.659Z,23.50
2023-11-26T12:33:08.600Z,23.42
2023-11-26T12:35:39.429Z,23.30
2023-11-26T12:38:08.295Z,23.27
2023-11-26T12:40:37.318Z,23.49
2023-11-26T12:43:05.204Z,23.70
2023-11-26T12:45:34.182Z,23.78
2023-11-26T12:48:01.640Z,23.83
2023-11-26T12:50:42.789Z,23.85
2023-11-26T12:53:14.315Z,23.96
2023-11-26T12:55:45.997Z,24.16
2023-11-26T12:58:20.146Z,24.31
2023-11-26T13:00:49.289Z,24.32
2023-11-26T13:03:19.539Z,24.24
2023-11-26T13:05:47.864Z,24.28
2023-11-26T13:08:21.413Z,24.45
2023-11-26T13:10:55.943Z,24.54
2023-11-26T13:13:28.198Z,24.63
2023-11-26T13:15:58.277Z,24.63
2023-11-26T13:18:27.067Z,24.59
2023-11-26T13:20:57.512Z,24.60
2023-11-26T13:23:25.770Z,24.59
2023-11-26T13:25:54.649Z,24.58
2023-11-26T13:28:23.241Z,24.44
2023-11-26T13:30:52.043Z,24.45
2023-11-26T13:33:21.674Z,24.50
2023-11-26T13:35:51.113Z,24.53
2023-11-26T13:38:19.092Z,24.74
2023-11-26T13:40:51.128Z,24.82
2023-11-26T13:43:23.978Z,24.83
2023-11-26T13:45:51.779Z,24.62
2023-11-26T13:48:24.426Z,24.40
2023-11-26T13:50:52.475Z,24.56
2023-11-26T13:53:20.241Z,24.73
2023-11-26T13:55:48.606Z,24.84
2023-11-26T13:58:17.050Z,24.92
2023-11-26T14:00:45.157Z,24.94
2023-11-26T14:03:13.028Z,25.01
2023-11-26T14:05:42.260Z,25.17
2023-11-26T14:08:09.629Z,25.18
2023-11-26T14:10:37.110Z,25.28
2023-11-26T14:13:08.333Z,25.34
2023-11-26T14:15:35.916Z,25.31
2023-11-26T14:18:06.643Z,25.23
2023-11-26T14:20:38.417Z,25.13
2023-11-26T14:23:11.030Z,25.05
2023-11-26T14:25:38.598Z,25.00
2023-11-26T14:28:05.993Z,25.13
2023-11-26T14:30:34.848Z,25.25
2023-11-26T14:33:02.513Z,25.40
2023-11-26T14:35:31.281Z,25.47
2023-11-26T14:37:58.767Z,25.38
2023-11-26T14:40:27.732Z,25.19
2023-11-26T14:42:55.247Z,25.08
2023-11-26T14:45:22.668Z,25.09
2023-11-26T14:47:50.195Z,25.13
2023-11-26T14:50:19.348Z,25.25
2023-11-26T14:52:47.539Z,25.38
2023-11-26T14:55:15.509Z,25.39
2023-11-26T14:57:44.927Z,25.33
2023-11-26T15:00:13.445Z,25.27
2023-11-26T15:02:41.064Z,25.34
2023-11-26T15:05:09.304Z,25.45
2023-11-26T15:07:36.752Z,25.51
2023-11-26T15:10:05.379Z,25.63
2023-11-26T15:12:32.963Z,25.60
2023-11-26T15:15:04.535Z,25.62
2023-11-26T15:17:32.214Z,25.70
2023-11-26T15:20:00.080Z,25.62
2023-11-26T15:22:27.634Z,25.68
2023-11-26T15:24:55.213Z,25.75
2023-11-26T15:27:22.679Z,25.68
2023-11-26T15:29:49.975Z,25.74
2023-11-26T15:32:18.750Z,25.85
2023-11-26T15:34:46.343Z,25.89
2023-11-26T15:37:13.782Z,25.91
2023-11-26T15:39:41.311Z,25.90
2023-11-26T15:42:08.730Z,25.95
2023-11-26T15:44:36.147Z,26.02
2023-11-26T15:47:05.860Z,26.05
2023-11-26T15:49:38.540Z,26.12
2023-11-26T15:52:06.787Z,25.95
2023-11-26T15:54:34.571Z,25.75
2023-11-26T15:57:02.159Z,25.60
2023-11-26T15:59:29.557Z,25.34
2023-11-26T16:01:58.958Z,25.06
2023-11-26T16:04:26.776Z,24.90
2023-11-26T16:06:55.985Z,24.75
2023-11-26T16:09:23.514Z,24.59
2023-11-26T16:11:51.075Z,24.44
2023-11-26T16:14:18.702Z,24.31
2023-11-26T16:16:55.843Z,24.16
2023-11-26T16:19:34.072Z,24.02
2023-11-26T16:22:04.651Z,23.86
2023-11-26T16:24:37.810Z,23.75
2023-11-26T16:27:05.950Z,23.63
2023-11-26T16:29:33.425Z,23.52
2023-11-26T16:32:01.209Z,23.46
2023-11-26T16:34:28.779Z,23.37
2023-11-26T16:36:56.739Z,23.34
2023-11-26T16:39:26.491Z,23.29
2023-11-26T16:41:54.852Z,23.25
2023-11-26T16:44:23.962Z,23.16
2023-11-26T16:46:51.699Z,23.11
2023-11-26T16:49:19.276Z,23.03
2023-11-26T16:51:49.695Z,22.96
2023-11-26T16:54:17.197Z,22.92
2023-11-26T16:56:46.166Z,22.86
2023-11-26T16:59:13.773Z,22.82
2023-11-26T17:01:41.172Z,22.78
2023-11-26T17:04:08.808Z,22.74
2023-11-26T17:06:36.527Z,22.72
2023-11-26T17:09:04.602Z,22.67
2023-11-26T17:11:32.034Z,22.64
2023-11-26T17:14:00.813Z,22.60
2023-11-26T17:16:28.312Z,22.58
2023-11-26T17:18:55.716Z,22.55
2023-11-26T17:21:23.660Z,22.53
2023-11-26T17:23:53.236Z,22.49
2023-11-26T17:26:22.153Z,22.48
2023-11-26T17:28:49.714Z,22.44
2023-11-26T17:31:22.629Z,22.42
2023-11-26T17:33:50.134Z,22.40
2023-11-26T17:36:17.889Z,22.36
2023-11-26T17:38:45.532Z,22.34
2023-11-26T17:41:12.951Z,22.31
2023-11-26T17:43:40.703Z,22.29
2023-11-26T17:46:08.347Z,22.27
2023-11-26T17:48:38.218Z,22.25
2023-11-26T17:51:05.894Z,22.24
2023-11-26T17:53:33.782Z,22.21
2023-11-26T17:56:01.378Z,22.18
2023-11-26T17:58:28.766Z,22.16
2023-11-26T18:00:56.538Z,22.14
2023-11-26T18:03:24.118Z,22.13
2023-11-26T18:05:52.988Z,22.10
2023-11-26T18:08:20.444Z,22.11
2023-11-26T18:10:47.923Z,22.08
2023-11-26T18:13:15.423Z,22.06
2023-11-26T18:15:43.084Z,22.06
2023-11-26T18:18:10.861Z,22.04
2023-11-26T18:20:38.363Z,22.03
2023-11-26T18:23:07.165Z,22.02
2023-11-26T18:25:35.094Z,22.01
2023-11-26T18:28:02.534Z,21.99
2023-11-26T18:30:30.049Z,21.99
2023-11-26T18:32:57.510Z,21.97
2023-11-26T18:35:26.001Z,21.96
2023-11-26T18:37:55.555Z,21.95
2023-11-26T18:40:24.711Z,21.94
2023-11-26T18:42:53.098Z,21.93
2023-11-26T18:45:21.822Z,21.91
2023-11-26T18:47:49.496Z,21.91
2023-11-26T18:50:17.150Z,21.89
2023-11-26T18:52:45.045Z,21.89
2023-11-26T18:55:13.374Z,21.87
2023-11-26T18:57:42.208Z,21.88
2023-11-26T19:00:11.032Z,21.85
2023-11-26T19:02:39.164Z,21.85
2023-11-26T19:05:07.252Z,21.84
2023-11-26T19:07:34.812Z,21.84
2023-11-26T19:10:05.673Z,21.82
2023-11-26T19:12:33.273Z,21.82
2023-11-26T19:15:02.122Z,21.80
2023-11-26T19:17:29.699Z,21.81
2023-11-26T19:19:57.427Z,21.80
2023-11-26T19:22:24.970Z,21.79
2023-11-26T19:24:52.437Z,21.79
2023-11-26T19:27:20.180Z,21.78
2023-11-26T19:29:47.691Z,21.78
2023-11-26T19:32:16.673Z,21.77
2023-11-26T19:34:46.232Z,21.74
2023-11-26T19:37:13.845Z,21.74
2023-11-26T19:39:44.380Z,21.84
2023-11-26T19:42:14.378Z,21.90
2023-11-26T19:44:41.959Z,21.95
2023-11-26T19:47:09.459Z,21.98
2023-11-26T19:49:38.277Z,22.00
2023-11-26T19:52:05.876Z,21.90
2023-11-26T19:54:33.312Z,21.83
2023-11-26T19:57:00.871Z,21.80
2023-11-26T19:59:28.335Z,21.76
2023-11-26T20:01:55.919Z,21.76
2023-11-26T20:04:23.552Z,21.74
2023-11-26T20:06:52.430Z,21.72
2023-11-26T20:09:20.211Z,21.72
2023-11-26T20:11:47.903Z,21.67
2023-11-26T20:14:15.443Z,21.62
2023-11-26T20:16:42.928Z,21.60
2023-11-26T20:19:10.382Z,21.59
2023-11-26T20:21:38.500Z,21.60
2023-11-26T20:24:09.567Z,21.60
2023-11-26T20:26:37.065Z,21.61
2023-11-26T20:29:04.517Z,21.60
2023-11-26T20:31:31.940Z,21.60
2023-11-26T20:34:04.011Z,21.60
2023-11-26T20:36:33.516Z,21.60
2023-11-26T20:39:01.430Z,21.60
2023-11-26T20:41:31.665Z,21.59
2023-11-26T20:43:59.203Z,21.59
2023-11-26T20:46:26.913Z,21.59
2023-11-26T20:48:54.513Z,21.58
2023-11-26T20:51:26.223Z,21.56
2023-11-26T20:53:56.456Z,21.56
2023-11-26T20:56:24.650Z,21.56
2023-11-26T20:58:53.833Z,21.56
2023-11-26T21:01:22.305Z,21.56
2023-11-26T21:03:49.878Z,21.56
2023-11-26T21:06:17.714Z,21.56
2023-11-26T21:08:45.010Z,21.55
2023-11-26T21:11:13.739Z,21.54
2023-11-26T21:13:41.560Z,21.55
2023-11-26T21:16:11.144Z,21.54
2023-11-26T21:18:38.817Z,21.53
2023-11-26T21:21:06.172Z,21.53
2023-11-26T21:23:33.637Z,21.52
2023-11-26T21:26:01.072Z,21.51
2023-11-26T21:28:29.828Z,21.51
2023-11-26T21:30:58.149Z,21.51
2023-11-26T21:33:27.060Z,21.49
2023-11-26T21:35:54.682Z,21.49
2023-11-26T21:38:21.998Z,21.49
2023-11-26T21:40:57.420Z,21.50
2023-11-26T21:43:32.606Z,21.48
2023-11-26T21:46:00.306Z,21.49
2023-11-26T21:48:29.392Z,21.49
2023-11-26T21:50:56.883Z,21.45
2023-11-26T21:53:25.385Z,21.47
2023-11-26T21:55:53.290Z,21.47
2023-11-26T21:58:20.741Z,21.47
2023-11-26T22:00:48.262Z,21.45
2023-11-26T22:03:15.875Z,21.45
2023-11-26T22:05:44.879Z,21.44
2023-11-26T22:08:12.573Z,21.43
2023-11-26T22:10:40.024Z,21.42
2023-11-26T22:13:07.512Z,21.42
2023-11-26T22:15:34.962Z,21.42
2023-11-26T22:18:02.402Z,21.41
2023-11-26T22:20:30.043Z,21.40
2023-11-26T22:22:58.633Z,21.40
2023-11-26T22:25:26.075Z,21.41
2023-11-26T22:27:53.571Z,21.40
2023-11-26T22:30:22.341Z,21.40
2023-11-26T22:32:49.793Z,21.39
2023-11-26T22:35:17.499Z,21.38
2023-11-26T22:37:44.842Z,21.38
2023-11-26T22:40:14.174Z,21.37
2023-11-26T22:42:42.263Z,21.37
2023-11-26T22:45:09.833Z,21.36
2023-11-26T22:47:37.261Z,21.36
2023-11-26T22:50:05.599Z,21.36
2023-11-26T22:52:33.161Z,21.35
2023-11-26T22:55:01.067Z,21.36
2023-11-26T22:57:29.964Z,21.34
2023-11-26T22:59:57.554Z,21.34
2023-11-26T23:02:25.280Z,21.35
2023-11-26T23:04:52.966Z,21.34
2023-11-26T23:07:20.340Z,21.34
2023-11-26T23:09:48.569Z,21.33
2023-11-26T23:12:16.047Z,21.32
2023-11-26T23:14:44.836Z,21.33
2023-11-26T23:17:13.160Z,21.32
2023-11-26T23:19:40.728Z,21.32
2023-11-26T23:22:08.145Z,21.31
2023-11-26T23:24:35.632Z,21.31
2023-11-26T23:27:03.473Z,21.30
2023-11-26T23:29:30.985Z,21.29
2023-11-26T23:31:59.840Z,21.29
2023-11-26T23:34:27.388Z,21.30
2023-11-26T23:36:54.850Z,21.29
2023-11-26T23:39:22.887Z,21.29
2023-11-26T23:41:50.392Z,21.29
2023-11-26T23:44:17.790Z,21.28
2023-11-26T23:46:45.591Z,21.27
2023-11-26T23:49:14.421Z,21.26
2023-11-26T23:51:41.917Z,21.27
2023-11-26T23:54:10.144Z,21.26
2023-11-26T23:56:37.693Z,21.26
2023-11-26T23:59:05.258Z,21.26
